createdAt,value
2023-01-25T00:01:50.446Z,95619.69
2023-01-25T00:04:18.614Z,95608.59
2023-01-25T00:06:46.890Z,95616.66
2023-01-25T00:09:15.176Z,95615.94
2023-01-25T00:11:44.362Z,95618.84
2023-01-25T00:14:15.218Z,95619.69
2023-01-25T00:16:44.241Z,95616.56
2023-01-25T00:19:13.207Z,95615.47
2023-01-25T00:21:41.447Z,95605.59
2023-01-25T00:24:11.815Z,95614.75
2023-01-25T00:26:40.460Z,95608.50
2023-01-25T00:29:08.684Z,95615.00
2023-01-25T00:31:51.551Z,95615.66
2023-01-25T00:34:45.567Z,95607.63
2023-01-25T00:37:24.814Z,95609.81
2023-01-25T00:39:53.122Z,95616.75
2023-01-25T00:42:22.049Z,95612.19
2023-01-25T00:44:50.410Z,95617.50
2023-01-25T00:47:20.277Z,95604.22
2023-01-25T00:49:48.411Z,95598.19
2023-01-25T00:52:17.722Z,95607.25
2023-01-25T00:54:45.867Z,95616.47
2023-01-25T00:57:13.935Z,95616.41
2023-01-25T00:59:44.641Z,95622.44
2023-01-25T01:02:13.690Z,95601.78
2023-01-25T01:04:43.255Z,95621.25
2023-01-25T01:07:13.869Z,95614.31
2023-01-25T01:09:42.150Z,95608.88
2023-01-25T01:12:10.161Z,95610.81
2023-01-25T01:14:38.450Z,95616.56
2023-01-25T01:17:06.374Z,95618.03
2023-01-25T01:19:34.620Z,95614.09
2023-01-25T01:22:04.125Z,95590.22
2023-01-25T01:24:32.177Z,95611.56
2023-01-25T01:27:01.595Z,95608.53
2023-01-25T01:29:29.549Z,95604.31
2023-01-25T01:31:57.613Z,95606.16
2023-01-25T01:34:25.610Z,95595.34
2023-01-25T01:36:53.556Z,95600.47
2023-01-25T01:39:23.699Z,95588.75
2023-01-25T01:41:51.612Z,95591.69
2023-01-25T01:44:24.215Z,95594.63
2023-01-25T01:46:56.254Z,95587.22
2023-01-25T01:49:27.671Z,95591.78
2023-01-25T01:52:00.119Z,95566.38
2023-01-25T01:54:33.857Z,95587.28
2023-01-25T01:57:08.224Z,95586.09
2023-01-25T01:59:38.759Z,95590.03
2023-01-25T02:02:07.850Z,95581.38
2023-01-25T02:04:36.806Z,95594.09
2023-01-25T02:07:11.249Z,95585.09
2023-01-25T02:09:41.555Z,95586.19
2023-01-25T02:12:11.738Z,95583.09
2023-01-25T02:14:45.884Z,95590.88
2023-01-25T02:17:13.967Z,95583.63
2023-01-25T02:19:50.142Z,95592.59
2023-01-25T02:22:24.024Z,95588.22
2023-01-25T02:25:03.252Z,95589.94
2023-01-25T02:27:31.299Z,95588.66
2023-01-25T02:30:00.257Z,95580.16
2023-01-25T02:32:28.540Z,95578.97
2023-01-25T02:34:56.519Z,95582.09
2023-01-25T02:37:24.517Z,95575.13
2023-01-25T02:39:52.702Z,95580.13
2023-01-25T02:42:22.077Z,95584.34
2023-01-25T02:44:51.657Z,95577.97
2023-01-25T02:47:19.568Z,95567.91
2023-01-25T02:49:47.520Z,95575.00
2023-01-25T02:52:15.436Z,95565.59
2023-01-25T02:54:43.505Z,95579.13
2023-01-25T02:57:11.467Z,95577.69
2023-01-25T02:59:40.986Z,95579.53
2023-01-25T03:02:08.927Z,95574.56
2023-01-25T03:04:37.147Z,95581.63
2023-01-25T03:07:05.100Z,95582.72
2023-01-25T03:09:33.107Z,95585.28
2023-01-25T03:12:01.471Z,95586.09
2023-01-25T03:14:29.421Z,95579.97
2023-01-25T03:16:58.847Z,95574.31
2023-01-25T03:19:26.937Z,95582.19
2023-01-25T03:21:54.877Z,95578.53
2023-01-25T03:24:23.017Z,95575.50
2023-01-25T03:27:08.137Z,95564.50
2023-01-25T03:29:36.053Z,95576.78
2023-01-25T03:32:05.708Z,95573.22
2023-01-25T03:34:33.703Z,95576.59
2023-01-25T03:37:01.921Z,95578.59
2023-01-25T03:39:30.193Z,95581.91
2023-01-25T03:41:58.225Z,95576.69
2023-01-25T03:44:26.131Z,95571.03
2023-01-25T03:46:54.067Z,95572.75
2023-01-25T03:49:23.441Z,95581.19
2023-01-25T03:51:51.316Z,95566.25
2023-01-25T03:54:19.201Z,95570.84
2023-01-25T03:56:47.099Z,95570.84
2023-01-25T03:59:15.020Z,95569.91
2023-01-25T04:01:45.533Z,95564.44
2023-01-25T04:04:13.491Z,95563.53
2023-01-25T04:06:42.880Z,95557.13
2023-01-25T04:09:11.010Z,95560.50
2023-01-25T04:11:38.931Z,95545.59
2023-01-25T04:14:06.929Z,95561.59
2023-01-25T04:16:36.165Z,95557.13
2023-01-25T04:19:04.188Z,95559.59
2023-01-25T04:21:32.502Z,95557.28
2023-01-25T04:24:01.898Z,95561.59
2023-01-25T04:26:30.162Z,95560.88
2023-01-25T04:28:58.195Z,95559.03
2023-01-25T04:31:26.270Z,95561.88
2023-01-25T04:33:54.300Z,95565.16
2023-01-25T04:36:22.349Z,95569.47
2023-01-25T04:38:50.265Z,95569.75
2023-01-25T04:41:19.655Z,95571.50
2023-01-25T04:43:47.629Z,95570.13
2023-01-25T04:46:15.638Z,95571.94
2023-01-25T04:48:43.717Z,95576.25
2023-01-25T04:51:15.263Z,95573.94
2023-01-25T04:53:43.261Z,95562.97
2023-01-25T04:56:12.471Z,95573.22
2023-01-25T04:58:41.991Z,95566.16
2023-01-25T05:01:10.422Z,95576.69
2023-01-25T05:03:41.459Z,95569.47
2023-01-25T05:06:09.591Z,95560.78
2023-01-25T05:08:37.886Z,95564.44
2023-01-25T05:11:06.288Z,95564.25
2023-01-25T05:13:34.544Z,95567.72
2023-01-25T05:16:03.973Z,95571.47
2023-01-25T05:18:47.088Z,95568.44
2023-01-25T05:21:30.077Z,95572.84
2023-01-25T05:23:58.285Z,95539.38
2023-01-25T05:26:43.471Z,95552.72
2023-01-25T05:29:11.716Z,95545.75
2023-01-25T05:31:44.491Z,95565.50
2023-01-25T05:34:14.061Z,95568.88
2023-01-25T05:36:42.026Z,95563.84
2023-01-25T05:39:09.992Z,95563.63
2023-01-25T05:41:38.142Z,95573.47
2023-01-25T05:44:06.447Z,95578.53
2023-01-25T05:46:34.404Z,95580.25
2023-01-25T05:49:03.753Z,95579.16
2023-01-25T05:51:31.673Z,95575.25
2023-01-25T05:53:59.807Z,95573.38
2023-01-25T05:56:27.755Z,95585.56
2023-01-25T05:58:56.262Z,95581.44
2023-01-25T06:01:24.862Z,95586.22
2023-01-25T06:03:53.312Z,95583.91
2023-01-25T06:06:23.573Z,95565.69
2023-01-25T06:08:51.941Z,95566.59
2023-01-25T06:11:22.748Z,95579.59
2023-01-25T06:13:51.594Z,95591.13
2023-01-25T06:16:20.640Z,95586.81
2023-01-25T06:18:48.610Z,95592.94
2023-01-25T06:21:16.574Z,95596.25
2023-01-25T06:23:45.911Z,95595.91
2023-01-25T06:26:16.613Z,95590.69
2023-01-25T06:28:44.624Z,95592.63
2023-01-25T06:31:14.135Z,95587.50
2023-01-25T06:33:43.246Z,95579.06
2023-01-25T06:36:13.474Z,95595.16
2023-01-25T06:38:41.896Z,95593.16
2023-01-25T06:41:13.272Z,95595.09
2023-01-25T06:43:41.209Z,95596.28
2023-01-25T06:46:12.114Z,95589.50
2023-01-25T06:48:41.867Z,95590.78
2023-01-25T06:51:12.442Z,95581.38
2023-01-25T06:53:42.124Z,95586.09
2023-01-25T06:56:14.748Z,95591.69
2023-01-25T06:58:42.982Z,95592.59
2023-01-25T07:01:14.712Z,95578.50
2023-01-25T07:03:43.531Z,95582.53
2023-01-25T07:06:12.709Z,95584.19
2023-01-25T07:08:40.872Z,95589.59
2023-01-25T07:11:13.877Z,95580.72
2023-01-25T07:13:42.810Z,95579.34
2023-01-25T07:16:14.373Z,95577.41
2023-01-25T07:18:42.466Z,95581.38
2023-01-25T07:21:13.887Z,95593.91
2023-01-25T07:23:42.066Z,95592.59
2023-01-25T07:26:18.015Z,95584.91
2023-01-25T07:28:46.292Z,95599.09
2023-01-25T07:31:15.426Z,95601.88
2023-01-25T07:33:43.920Z,95600.41
2023-01-25T07:36:12.688Z,95605.25
2023-01-25T07:38:40.620Z,95604.97
2023-01-25T07:41:08.639Z,95600.38
2023-01-25T07:43:38.006Z,95607.44
2023-01-25T07:46:08.181Z,95611.00
2023-01-25T07:48:36.181Z,95611.28
2023-01-25T07:51:22.768Z,95610.72
2023-01-25T07:53:52.372Z,95616.59
2023-01-25T07:56:22.948Z,95614.03
2023-01-25T07:58:53.927Z,95612.13
2023-01-25T08:01:23.706Z,95611.63
2023-01-25T08:03:52.662Z,95608.00
2023-01-25T08:06:27.568Z,95602.47
2023-01-25T08:08:56.352Z,95586.31
2023-01-25T08:11:26.845Z,95603.50
2023-01-25T08:13:57.122Z,95604.97
2023-01-25T08:16:27.853Z,95601.38
2023-01-25T08:18:58.303Z,95601.84
2023-01-25T08:21:30.117Z,95601.75
2023-01-25T08:23:59.746Z,95606.22
2023-01-25T08:26:28.079Z,95589.59
2023-01-25T08:28:57.672Z,95599.94
2023-01-25T08:31:27.485Z,95594.81
2023-01-25T08:33:55.975Z,95593.91
2023-01-25T08:36:24.706Z,95599.38
2023-01-25T08:38:56.057Z,95601.00
2023-01-25T08:41:25.735Z,95600.66
2023-01-25T08:43:55.499Z,95594.88
2023-01-25T08:46:28.620Z,95590.28
2023-01-25T08:48:58.901Z,95592.41
2023-01-25T08:51:27.367Z,95582.88
2023-01-25T08:53:55.626Z,95574.69
2023-01-25T08:56:23.626Z,95588.81
2023-01-25T08:58:52.401Z,95595.00
2023-01-25T09:01:21.152Z,95575.50
2023-01-25T09:03:52.278Z,95597.09
2023-01-25T09:06:21.021Z,95595.97
2023-01-25T09:08:49.188Z,95580.09
2023-01-25T09:11:19.276Z,95589.88
2023-01-25T09:13:48.824Z,95587.16
2023-01-25T09:16:20.820Z,95583.56
2023-01-25T09:18:50.942Z,95583.09
2023-01-25T09:21:20.124Z,95574.91
2023-01-25T09:24:04.151Z,95578.13
2023-01-25T09:26:33.040Z,95577.94
2023-01-25T09:29:01.312Z,95576.03
2023-01-25T09:31:29.543Z,95570.53
2023-01-25T09:33:59.071Z,95566.13
2023-01-25T09:36:27.239Z,95564.38
2023-01-25T09:38:56.752Z,95545.25
2023-01-25T09:41:40.568Z,95555.66
2023-01-25T09:44:23.835Z,95543.47
2023-01-25T09:46:54.299Z,95538.41
2023-01-25T09:49:32.694Z,95542.22
2023-01-25T09:52:20.150Z,95534.75
2023-01-25T09:54:50.422Z,95518.09
2023-01-25T09:57:22.419Z,95520.91
2023-01-25T09:59:52.883Z,95520.81
2023-01-25T10:02:38.041Z,95517.34
2023-01-25T10:05:14.171Z,95520.03
2023-01-25T10:07:54.275Z,95503.50
2023-01-25T10:10:29.209Z,95510.69
2023-01-25T10:12:57.335Z,95512.88
2023-01-25T10:15:34.111Z,95501.16
2023-01-25T10:18:11.231Z,95496.88
2023-01-25T10:20:48.831Z,95499.03
2023-01-25T10:23:40.179Z,95487.22
2023-01-25T10:26:18.012Z,95493.88
2023-01-25T10:28:53.337Z,95490.28
2023-01-25T10:31:28.774Z,95487.72
2023-01-25T10:33:59.285Z,95486.78
2023-01-25T10:36:32.126Z,95476.81
2023-01-25T10:39:01.745Z,95486.03
2023-01-25T10:41:37.758Z,95471.66
2023-01-25T10:44:24.719Z,95467.41
2023-01-25T10:46:59.095Z,95471.44
2023-01-25T10:49:36.039Z,95474.00
2023-01-25T10:52:20.013Z,95457.03
2023-01-25T10:54:50.367Z,95460.84
2023-01-25T10:57:21.223Z,95447.09
2023-01-25T10:59:52.016Z,95456.00
2023-01-25T11:02:39.231Z,95453.44
2023-01-25T11:05:27.065Z,95451.56
2023-01-25T11:07:57.153Z,95443.16
2023-01-25T11:10:33.672Z,95433.44
2023-01-25T11:13:21.320Z,95434.63
2023-01-25T11:15:52.170Z,95443.44
2023-01-25T11:18:23.825Z,95431.44
2023-01-25T11:21:06.501Z,95428.50
2023-01-25T11:23:35.980Z,95425.44
2023-01-25T11:26:14.261Z,95422.31
2023-01-25T11:28:42.461Z,95422.88
2023-01-25T11:31:13.868Z,95423.34
2023-01-25T11:33:43.120Z,95413.91
2023-01-25T11:36:21.164Z,95400.50
2023-01-25T11:39:04.993Z,95425.41
2023-01-25T11:41:44.144Z,95414.31
2023-01-25T11:44:41.657Z,95402.31
2023-01-25T11:47:23.494Z,95386.34
2023-01-25T11:50:02.427Z,95389.41
2023-01-25T11:52:40.440Z,95381.31
2023-01-25T11:55:23.859Z,95380.41
2023-01-25T11:58:17.920Z,95379.78
2023-01-25T12:01:08.113Z,95377.47
2023-01-25T12:04:13.669Z,95375.84
2023-01-25T12:06:54.354Z,95372.56
2023-01-25T12:09:54.692Z,95360.94
2023-01-25T12:12:43.082Z,95367.13
2023-01-25T12:15:37.866Z,95351.53
2023-01-25T12:18:35.858Z,95356.38
2023-01-25T12:21:13.363Z,95358.25
2023-01-25T12:23:56.662Z,95359.78
2023-01-25T12:26:29.412Z,95352.66
2023-01-25T12:29:06.695Z,95333.94
2023-01-25T12:31:43.847Z,95347.53
2023-01-25T12:34:19.353Z,95325.72
2023-01-25T12:36:49.527Z,95350.16
2023-01-25T12:39:24.444Z,95341.03
2023-01-25T12:41:57.194Z,95341.38
2023-01-25T12:44:32.221Z,95344.63
2023-01-25T12:47:06.873Z,95346.97
2023-01-25T12:49:40.397Z,95344.03
2023-01-25T12:52:17.350Z,95333.66
2023-01-25T12:54:48.827Z,95334.00
2023-01-25T12:57:25.613Z,95340.50
2023-01-25T13:00:02.965Z,95324.25
2023-01-25T13:02:48.089Z,95330.09
2023-01-25T13:05:28.140Z,95326.94
2023-01-25T13:08:05.049Z,95321.41
2023-01-25T13:10:39.835Z,95314.44
2023-01-25T13:13:22.984Z,95312.72
2023-01-25T13:15:54.259Z,95321.53
2023-01-25T13:18:42.183Z,95307.47
2023-01-25T13:21:41.772Z,95301.84
2023-01-25T13:24:28.485Z,95305.69
2023-01-25T13:27:05.186Z,95304.41
2023-01-25T13:30:04.068Z,95299.13
2023-01-25T13:33:07.309Z,95307.53
2023-01-25T13:35:44.471Z,95306.63
2023-01-25T13:38:37.004Z,95304.47
2023-01-25T13:41:12.298Z,95307.88
2023-01-25T13:43:42.476Z,95307.53
2023-01-25T13:46:13.667Z,95307.66
2023-01-25T13:48:54.930Z,95322.31
2023-01-25T13:51:24.225Z,95327.69
2023-01-25T13:54:00.992Z,95321.41
2023-01-25T13:56:32.141Z,95313.69
2023-01-25T13:59:00.503Z,95298.16
2023-01-25T14:01:30.331Z,95318.94
2023-01-25T14:04:02.136Z,95324.69
2023-01-25T14:06:33.469Z,95318.34
2023-01-25T14:09:07.822Z,95321.22
2023-01-25T14:11:44.150Z,95313.09
2023-01-25T14:14:21.399Z,95310.63
2023-01-25T14:17:02.820Z,95313.44
2023-01-25T14:19:32.069Z,95316.81
2023-01-25T14:22:23.104Z,95316.69
2023-01-25T14:25:08.499Z,95307.38
2023-01-25T14:27:37.537Z,95313.25
2023-01-25T14:30:06.675Z,95307.31
2023-01-25T14:32:36.597Z,95303.50
2023-01-25T14:35:42.810Z,95287.75
2023-01-25T14:38:27.103Z,95303.84
2023-01-25T14:40:59.280Z,95296.56
2023-01-25T14:43:28.255Z,95296.38
2023-01-25T14:45:56.320Z,95287.06
2023-01-25T14:48:34.954Z,95286.03
2023-01-25T14:51:12.129Z,95275.25
2023-01-25T14:53:42.764Z,95271.06
2023-01-25T14:56:29.365Z,95294.00
2023-01-25T14:58:59.988Z,95291.97
2023-01-25T15:01:37.189Z,95303.06
2023-01-25T15:04:10.637Z,95300.59
2023-01-25T15:06:46.807Z,95303.91
2023-01-25T15:09:36.612Z,95309.94
2023-01-25T15:12:27.661Z,95306.13
2023-01-25T15:14:57.520Z,95313.94
2023-01-25T15:17:43.207Z,95315.59
2023-01-25T15:20:29.183Z,95321.75
2023-01-25T15:22:58.528Z,95326.75
2023-01-25T15:25:26.744Z,95326.72
2023-01-25T15:27:56.106Z,95323.16
2023-01-25T15:30:24.071Z,95327.03
2023-01-25T15:32:52.141Z,95324.81
2023-01-25T15:35:21.846Z,95317.91
2023-01-25T15:37:50.368Z,95324.81
2023-01-25T15:40:18.603Z,95311.97
2023-01-25T15:42:46.625Z,95324.06
2023-01-25T15:45:16.110Z,95326.63
2023-01-25T15:47:44.010Z,95335.44
2023-01-25T15:50:19.739Z,95325.06
2023-01-25T15:52:48.819Z,95334.56
2023-01-25T15:55:16.898Z,95319.66
2023-01-25T15:57:46.950Z,95332.72
2023-01-25T16:00:23.093Z,95323.91
2023-01-25T16:02:51.375Z,95324.22
2023-01-25T16:05:19.629Z,95323.94
2023-01-25T16:07:47.574Z,95333.38
2023-01-25T16:10:25.744Z,95329.44
2023-01-25T16:12:53.634Z,95328.28
2023-01-25T16:15:23.017Z,95318.38
2023-01-25T16:17:50.968Z,95306.06
2023-01-25T16:20:22.316Z,95331.31
2023-01-25T16:22:50.486Z,95325.56
2023-01-25T16:25:18.629Z,95324.00
2023-01-25T16:27:46.651Z,95323.91
2023-01-25T16:30:21.312Z,95315.56
2023-01-25T16:32:52.739Z,95330.34
2023-01-25T16:35:21.886Z,95319.47
2023-01-25T16:37:52.222Z,95314.06
2023-01-25T16:40:24.976Z,95321.41
2023-01-25T16:42:53.175Z,95321.41
2023-01-25T16:45:21.055Z,95318.66
2023-01-25T16:47:49.294Z,95317.41
2023-01-25T16:50:21.264Z,95320.88
2023-01-25T16:52:54.523Z,95311.03
2023-01-25T16:55:31.610Z,95321.16
2023-01-25T16:57:59.672Z,95315.91
2023-01-25T17:00:30.119Z,95307.31
2023-01-25T17:06:46.284Z,95309.91
2023-01-25T17:09:23.415Z,95312.84
2023-01-25T17:11:55.638Z,95315.03
2023-01-25T17:14:26.746Z,95313.22
2023-01-25T17:16:57.335Z,95305.19
2023-01-25T17:19:27.930Z,95309.28
2023-01-25T17:21:59.174Z,95320.75
2023-01-25T17:24:29.300Z,95316.22
2023-01-25T17:26:58.343Z,95306.47
2023-01-25T17:29:26.799Z,95305.28
2023-01-25T17:31:55.076Z,95313.13
2023-01-25T17:34:23.533Z,95313.66
2023-01-25T17:36:53.417Z,95302.91
2023-01-25T17:39:23.299Z,95282.44
2023-01-25T17:41:52.678Z,95303.06
2023-01-25T17:44:22.529Z,95294.47
2023-01-25T17:46:51.266Z,95296.81
2023-01-25T17:49:22.358Z,95288.34
2023-01-25T17:51:50.344Z,95287.22
2023-01-25T17:54:21.516Z,95284.53
2023-01-25T17:56:51.603Z,95276.75
2023-01-25T17:59:19.656Z,95280.66
2023-01-25T18:01:48.378Z,95269.34
2023-01-25T18:04:17.818Z,95280.44
2023-01-25T18:06:45.909Z,95275.16
2023-01-25T18:09:13.966Z,95278.63
2023-01-25T18:11:42.032Z,95270.09
2023-01-25T18:14:15.308Z,95261.19
2023-01-25T18:16:46.291Z,95251.44
2023-01-25T18:19:14.817Z,95260.16
2023-01-25T18:21:45.266Z,95280.28
2023-01-25T18:24:33.727Z,95251.56
2023-01-25T18:27:05.579Z,95272.91
2023-01-25T18:29:48.947Z,95265.50
2023-01-25T18:32:17.403Z,95262.56
2023-01-25T18:34:48.122Z,95270.72
2023-01-25T18:37:20.753Z,95269.47
2023-01-25T18:39:50.679Z,95246.31
2023-01-25T18:42:22.810Z,95229.31
2023-01-25T18:44:52.737Z,95248.28
2023-01-25T18:47:22.311Z,95269.19
2023-01-25T18:49:52.308Z,95284.06
2023-01-25T18:52:24.027Z,95278.94
2023-01-25T18:54:53.281Z,95263.38
2023-01-25T18:57:21.915Z,95277.78
2023-01-25T18:59:51.610Z,95273.59
2023-01-25T19:02:20.195Z,95279.28
2023-01-25T19:04:48.387Z,95271.72
2023-01-25T19:07:18.535Z,95263.28
2023-01-25T19:09:48.064Z,95263.13
2023-01-25T19:12:16.375Z,95249.78
2023-01-25T19:14:47.285Z,95261.25
2023-01-25T19:17:16.951Z,95261.09
2023-01-25T19:19:45.238Z,95256.06
2023-01-25T19:22:13.644Z,95244.72
2023-01-25T19:24:42.318Z,95251.66
2023-01-25T19:27:10.594Z,95254.31
2023-01-25T19:29:38.826Z,95247.94
2023-01-25T19:32:07.333Z,95230.22
2023-01-25T19:34:37.020Z,95236.19
2023-01-25T19:37:05.111Z,95214.28
2023-01-25T19:39:33.037Z,95216.03
2023-01-25T19:42:01.043Z,95237.31
2023-01-25T19:44:28.977Z,95231.19
2023-01-25T19:46:57.311Z,95212.41
2023-01-25T19:49:25.497Z,95219.72
2023-01-25T19:51:57.918Z,95236.59
2023-01-25T19:54:26.399Z,95213.72
2023-01-25T19:56:56.474Z,95222.97
2023-01-25T19:59:26.841Z,95212.25
2023-01-25T20:01:55.159Z,95216.44
2023-01-25T20:04:24.753Z,95213.78
2023-01-25T20:06:53.088Z,95204.25
2023-01-25T20:09:27.874Z,95196.75
2023-01-25T20:11:57.513Z,95208.38
2023-01-25T20:14:25.684Z,95204.44
2023-01-25T20:16:53.667Z,95208.84
2023-01-25T20:19:21.868Z,95206.97
2023-01-25T20:21:49.764Z,95209.97
2023-01-25T20:24:18.395Z,95199.63
2023-01-25T20:26:47.808Z,95208.50
2023-01-25T20:29:19.871Z,95205.94
2023-01-25T20:31:48.366Z,95197.56
2023-01-25T20:34:18.769Z,95194.38
2023-01-25T20:37:00.358Z,95202.84
2023-01-25T20:39:31.251Z,95188.25
2023-01-25T20:42:01.405Z,95184.22
2023-01-25T20:44:30.065Z,95194.41
2023-01-25T20:46:58.503Z,95194.13
2023-01-25T20:49:26.626Z,95190.00
2023-01-25T20:51:54.723Z,95187.44
2023-01-25T20:54:22.942Z,95185.47
2023-01-25T20:56:50.941Z,95180.88
2023-01-25T20:59:24.563Z,95184.38
2023-01-25T21:01:52.868Z,95171.03
2023-01-25T21:04:21.016Z,95149.13
2023-01-25T21:06:48.961Z,95170.94
2023-01-25T21:09:21.968Z,95167.44
2023-01-25T21:11:49.902Z,95160.09
2023-01-25T21:14:19.477Z,95155.59
2023-01-25T21:16:48.807Z,95163.78
2023-01-25T21:19:16.882Z,95162.66
2023-01-25T21:21:44.959Z,95162.00
2023-01-25T21:24:12.886Z,95156.09
2023-01-25T21:26:40.833Z,95145.13
2023-01-25T21:29:09.030Z,95138.06
2023-01-25T21:31:38.611Z,95147.81
2023-01-25T21:34:09.286Z,95152.44
2023-01-25T21:36:37.779Z,95148.84
2023-01-25T21:39:05.784Z,95152.22
2023-01-25T21:41:34.459Z,95146.69
2023-01-25T21:44:20.542Z,95145.78
2023-01-25T21:47:16.235Z,95145.16
2023-01-25T21:49:55.259Z,95138.19
2023-01-25T21:52:23.204Z,95144.53
2023-01-25T21:54:51.139Z,95138.06
2023-01-25T21:57:19.126Z,95115.03
2023-01-25T21:59:47.072Z,95134.69
2023-01-25T22:02:16.135Z,95127.00
2023-01-25T22:04:45.425Z,95116.06
2023-01-25T22:07:13.407Z,95118.63
2023-01-25T22:09:41.390Z,95106.91
2023-01-25T22:12:09.420Z,95115.19
2023-01-25T22:14:37.362Z,95112.97
2023-01-25T22:17:05.304Z,95107.09
2023-01-25T22:19:33.391Z,95109.03
2023-01-25T22:22:02.759Z,95109.13
2023-01-25T22:24:30.706Z,95097.78
2023-01-25T22:27:04.872Z,95096.94
2023-01-25T22:29:34.258Z,95082.09
2023-01-25T22:32:02.399Z,95100.09
2023-01-25T22:34:30.350Z,95096.84
2023-01-25T22:36:58.365Z,95092.63
2023-01-25T22:39:28.432Z,95080.66
2023-01-25T22:41:56.944Z,95064.31
2023-01-25T22:44:24.876Z,95065.63
2023-01-25T22:46:53.853Z,95048.41
2023-01-25T22:49:21.833Z,95053.91
2023-01-25T22:51:49.755Z,95054.06
2023-01-25T22:54:17.665Z,95049.78
2023-01-25T22:56:46.963Z,95053.34
2023-01-25T22:59:18.853Z,95043.81
2023-01-25T23:01:47.103Z,95035.22
2023-01-25T23:04:15.106Z,95041.28
2023-01-25T23:06:43.044Z,95023.66
2023-01-25T23:09:11.515Z,95031.72
2023-01-25T23:11:39.588Z,95033.88
2023-01-25T23:14:29.906Z,95022.31
2023-01-25T23:17:17.916Z,95018.28
2023-01-25T23:19:45.075Z,95019.22
2023-01-25T23:22:13.003Z,95021.38
2023-01-25T23:24:40.910Z,95022.53
2023-01-25T23:27:08.845Z,95019.16
2023-01-25T23:29:38.286Z,95012.56
2023-01-25T23:32:06.711Z,95027.97
2023-01-25T23:34:39.539Z,95015.56
2023-01-25T23:37:07.465Z,95014.63
2023-01-25T23:39:35.393Z,95010.34
2023-01-25T23:42:03.517Z,95011.25
2023-01-25T23:44:31.364Z,94996.13
